createdAt,value
2023-04-28T00:00:13.503Z,9.00
2023-04-28T00:02:41.994Z,9.18
2023-04-28T00:05:11.027Z,8.68
2023-04-28T00:07:39.502Z,9.64
2023-04-28T00:10:09.109Z,9.94
2023-04-28T00:12:37.296Z,10.01
2023-04-28T00:15:07.618Z,9.69
2023-04-28T00:17:36.143Z,9.32
2023-04-28T00:20:05.633Z,9.10
2023-04-28T00:22:33.875Z,9.14
2023-04-28T00:25:02.251Z,9.11
2023-04-28T00:27:30.554Z,9.21
2023-04-28T00:29:58.826Z,9.25
2023-04-28T00:32:28.760Z,8.77
2023-04-28T00:34:58.863Z,8.79
2023-04-28T00:37:27.215Z,9.30
2023-04-28T00:39:56.940Z,9.33
2023-04-28T00:42:25.270Z,8.56
2023-04-28T00:44:53.548Z,8.35
2023-04-28T00:47:21.844Z,9.01
2023-04-28T00:49:52.337Z,9.03
2023-04-28T00:52:20.559Z,9.15
2023-04-28T00:54:49.091Z,8.82
2023-04-28T00:57:17.370Z,8.38
2023-04-28T00:59:45.903Z,8.16
2023-04-28T01:02:17.551Z,6.78
2023-04-28T01:04:46.416Z,8.07
2023-04-28T01:07:16.391Z,8.05
2023-04-28T01:09:46.461Z,7.65
2023-04-28T01:12:14.726Z,7.99
2023-04-28T01:14:43.443Z,7.24
2023-04-28T01:17:12.126Z,7.65
2023-04-28T01:19:40.346Z,7.45
2023-04-28T01:22:10.739Z,7.49
2023-04-28T01:24:40.339Z,6.89
2023-04-28T01:27:08.570Z,7.56
2023-04-28T01:29:36.904Z,7.65
2023-04-28T01:32:05.500Z,7.27
2023-04-28T01:34:33.785Z,7.29
2023-04-28T01:37:02.041Z,7.41
2023-04-28T01:39:30.303Z,7.50
2023-04-28T01:41:59.973Z,7.15
2023-04-28T01:44:28.291Z,6.99
2023-04-28T01:46:56.649Z,7.49
2023-04-28T01:49:25.002Z,7.44
2023-04-28T01:51:53.267Z,7.27
2023-04-28T01:54:21.550Z,7.32
2023-04-28T01:56:49.796Z,7.34
2023-04-28T01:59:20.615Z,7.47
2023-04-28T02:01:48.947Z,7.25
2023-04-28T02:04:17.886Z,7.49
2023-04-28T02:06:46.393Z,7.61
2023-04-28T02:09:14.674Z,6.90
2023-04-28T02:11:42.948Z,7.49
2023-04-28T02:14:11.174Z,7.10
2023-04-28T02:16:40.867Z,6.93
2023-04-28T02:19:09.115Z,6.99
2023-04-28T02:21:37.404Z,6.88
2023-04-28T02:24:06.659Z,6.91
2023-04-28T02:26:35.481Z,7.50
2023-04-28T02:29:04.891Z,7.55
2023-04-28T02:31:33.402Z,7.67
2023-04-28T02:34:03.180Z,7.39
2023-04-28T02:36:32.049Z,7.18
2023-04-28T02:39:00.329Z,7.54
2023-04-28T02:41:30.193Z,7.13
2023-04-28T02:43:58.461Z,7.14
2023-04-28T02:46:26.763Z,7.10
2023-04-28T02:48:55.008Z,7.06
2023-04-28T02:51:24.793Z,7.08
2023-04-28T02:53:53.106Z,7.18
2023-04-28T02:56:21.395Z,7.20
2023-04-28T02:58:49.705Z,7.46
2023-04-28T03:01:18.031Z,7.17
2023-04-28T03:03:46.444Z,6.93
2023-04-28T03:06:14.820Z,6.88
2023-04-28T03:08:44.551Z,6.75
2023-04-28T03:11:12.956Z,6.71
2023-04-28T03:13:41.660Z,6.52
2023-04-28T03:16:09.958Z,6.47
2023-04-28T03:18:38.331Z,6.87
2023-04-28T03:21:06.826Z,6.95
2023-04-28T03:23:35.097Z,7.32
2023-04-28T03:26:04.802Z,6.64
2023-04-28T03:28:33.246Z,6.77
2023-04-28T03:31:02.720Z,6.82
2023-04-28T03:33:30.969Z,6.72
2023-04-28T03:35:59.248Z,6.67
2023-04-28T03:38:28.188Z,6.66
2023-04-28T03:40:56.372Z,6.58
2023-04-28T03:43:25.927Z,6.45
2023-04-28T03:45:54.630Z,6.44
2023-04-28T03:48:23.472Z,6.95
2023-04-28T03:50:52.731Z,6.49
2023-04-28T03:53:20.989Z,6.36
2023-04-28T03:55:49.702Z,6.38
2023-04-28T03:58:18.067Z,6.14
2023-04-28T04:00:47.894Z,6.36
2023-04-28T04:03:16.344Z,6.06
2023-04-28T04:05:45.004Z,5.98
2023-04-28T04:08:13.582Z,5.80
2023-04-28T04:10:41.767Z,6.31
2023-04-28T04:13:10.049Z,6.27
2023-04-28T04:15:38.458Z,6.55
2023-04-28T04:18:08.315Z,7.04
2023-04-28T04:20:36.670Z,6.80
2023-04-28T04:23:04.943Z,7.06
2023-04-28T04:25:33.534Z,6.89
2023-04-28T04:28:01.890Z,6.90
2023-04-28T04:30:30.226Z,7.00
2023-04-28T04:32:58.556Z,7.13
2023-04-28T04:35:28.284Z,7.46
2023-04-28T04:37:57.199Z,7.92
2023-04-28T04:40:25.801Z,8.37
2023-04-28T04:42:54.185Z,8.65
2023-04-28T04:45:22.757Z,8.71
2023-04-28T04:47:51.183Z,8.80
2023-04-28T04:50:19.517Z,8.65
2023-04-28T04:52:49.304Z,8.28
2023-04-28T04:55:17.594Z,8.02
2023-04-28T04:57:45.816Z,8.12
2023-04-28T05:00:15.818Z,7.90
2023-04-28T05:02:44.338Z,8.82
2023-04-28T05:05:21.481Z,9.04
2023-04-28T05:07:52.632Z,9.35
2023-04-28T05:10:21.152Z,9.51
2023-04-28T05:12:49.450Z,9.12
2023-04-28T05:15:17.803Z,9.31
2023-04-28T05:17:46.396Z,8.90
2023-04-28T05:20:14.673Z,9.39
2023-04-28T05:22:43.041Z,9.66
2023-04-28T05:25:12.882Z,9.38
2023-04-28T05:27:41.248Z,9.40
2023-04-28T05:30:10.893Z,9.47
2023-04-28T05:32:40.086Z,9.99
2023-04-28T05:35:09.023Z,10.24
2023-04-28T05:37:38.408Z,10.76
2023-04-28T05:40:08.125Z,10.93
2023-04-28T05:42:37.755Z,10.82
2023-04-28T05:45:07.331Z,10.33
2023-04-28T05:47:35.808Z,10.99
2023-04-28T05:50:04.174Z,10.75
2023-04-28T05:52:32.485Z,10.88
2023-04-28T05:55:00.785Z,10.16
2023-04-28T05:57:30.531Z,10.60
2023-04-28T06:00:03.790Z,11.05
2023-04-28T06:02:32.223Z,10.58
2023-04-28T06:05:01.203Z,11.42
2023-04-28T06:07:29.624Z,11.83
2023-04-28T06:09:57.881Z,12.40
2023-04-28T06:12:26.414Z,12.58
2023-04-28T06:14:55.609Z,13.19
2023-04-28T06:17:25.447Z,13.27
2023-04-28T06:19:54.785Z,13.64
2023-04-28T06:22:23.071Z,14.08
2023-04-28T06:24:51.292Z,13.62
2023-04-28T06:27:19.851Z,14.48
2023-04-28T06:29:48.087Z,14.24
2023-04-28T06:32:16.375Z,14.53
2023-04-28T06:34:46.196Z,14.78
2023-04-28T06:37:14.496Z,14.55
2023-04-28T06:39:42.823Z,14.39
2023-04-28T06:42:11.313Z,14.92
2023-04-28T06:44:39.707Z,14.62
2023-04-28T06:47:08.253Z,15.85
2023-04-28T06:49:36.616Z,15.58
2023-04-28T06:52:08.045Z,16.28
2023-04-28T06:54:38.621Z,16.71
2023-04-28T06:57:06.903Z,16.39
2023-04-28T06:59:35.144Z,16.29
2023-04-28T07:02:03.439Z,16.40
2023-04-28T07:04:31.758Z,16.08
2023-04-28T07:07:00.054Z,16.91
2023-04-28T07:09:31.356Z,17.03
2023-04-28T07:11:59.845Z,17.91
2023-04-28T07:14:28.145Z,16.70
2023-04-28T07:16:56.410Z,16.70
2023-04-28T07:19:24.773Z,16.69
2023-04-28T07:21:53.010Z,17.28
2023-04-28T07:24:21.229Z,17.06
2023-04-28T07:26:50.890Z,17.29
2023-04-28T07:29:19.850Z,16.79
2023-04-28T07:31:48.142Z,16.79
2023-04-28T07:34:16.776Z,16.40
2023-04-28T07:36:45.232Z,17.87
2023-04-28T07:39:13.497Z,18.50
2023-04-28T07:41:42.015Z,18.87
2023-04-28T07:44:11.800Z,17.87
2023-04-28T07:46:40.137Z,18.39
2023-04-28T07:49:08.501Z,17.71
2023-04-28T07:51:36.693Z,17.93
2023-04-28T07:54:05.045Z,18.78
2023-04-28T07:56:33.307Z,19.73
2023-04-28T07:59:01.682Z,18.95
2023-04-28T08:01:31.431Z,18.72
2023-04-28T08:04:00.027Z,19.58
2023-04-28T08:06:28.506Z,20.47
2023-04-28T08:08:57.157Z,19.13
2023-04-28T08:11:25.425Z,18.86
2023-04-28T08:13:53.987Z,18.45
2023-04-28T08:16:22.724Z,19.80
2023-04-28T08:18:52.656Z,20.68
2023-04-28T08:21:21.314Z,21.39
2023-04-28T08:23:49.577Z,22.32
2023-04-28T08:26:17.984Z,21.75
2023-04-28T08:28:46.205Z,22.51
2023-04-28T08:31:14.500Z,22.55
2023-04-28T08:33:44.922Z,21.48
2023-04-28T08:36:15.158Z,22.62
2023-04-28T08:38:44.284Z,21.01
2023-04-28T08:41:14.639Z,20.63
2023-04-28T08:43:43.208Z,21.04
2023-04-28T08:46:11.915Z,21.76
2023-04-28T08:48:43.575Z,21.14
2023-04-28T08:51:17.508Z,21.03
2023-04-28T08:56:26.324Z,21.63
2023-04-28T08:58:55.324Z,21.27
2023-04-28T09:01:23.977Z,22.31
2023-04-28T09:03:52.776Z,23.34
2023-04-28T09:06:23.337Z,24.11
2023-04-28T09:08:51.638Z,22.24
2023-04-28T09:11:21.184Z,21.15
2023-04-28T09:13:49.500Z,20.64
2023-04-28T09:16:17.838Z,22.30
2023-04-28T09:18:57.941Z,24.13
2023-04-28T09:21:27.560Z,23.18
2023-04-28T09:23:55.790Z,22.94
2023-04-28T09:26:25.401Z,21.58
2023-04-28T09:28:57.478Z,22.24
2023-04-28T09:31:28.166Z,22.03
2023-04-28T09:33:59.457Z,23.74
2023-04-28T09:36:32.940Z,23.46
2023-04-28T09:39:02.531Z,24.07
2023-04-28T09:41:38.769Z,23.91
2023-04-28T09:44:15.440Z,24.24
2023-04-28T09:46:44.871Z,23.08
2023-04-28T09:49:13.630Z,22.71
2023-04-28T09:51:43.363Z,22.84
2023-04-28T09:54:12.917Z,23.44
2023-04-28T09:56:44.411Z,23.95
2023-04-28T09:59:12.856Z,23.22
2023-04-28T10:01:42.896Z,24.34
2023-04-28T10:04:13.324Z,25.27
2023-04-28T10:06:44.780Z,23.58
2023-04-28T10:09:14.298Z,24.19
2023-04-28T10:11:43.168Z,25.70
2023-04-28T10:14:12.589Z,25.63
2023-04-28T10:16:40.831Z,23.80
2023-04-28T10:19:10.429Z,24.34
2023-04-28T10:21:49.529Z,25.51
2023-04-28T10:24:23.274Z,25.39
2023-04-28T10:27:04.430Z,25.80
2023-04-28T10:29:34.293Z,25.22
2023-04-28T10:32:23.317Z,24.95
2023-04-28T10:34:51.836Z,24.29
2023-04-28T10:37:22.202Z,25.10
2023-04-28T10:40:27.579Z,25.94
2023-04-28T10:42:57.489Z,25.02
2023-04-28T10:46:08.247Z,25.47
2023-04-28T10:49:06.953Z,24.99
2023-04-28T10:51:36.573Z,25.66
2023-04-28T10:54:16.647Z,24.16
2023-04-28T10:57:19.438Z,26.42
2023-04-28T10:59:47.897Z,28.06
2023-04-28T11:02:41.833Z,29.12
2023-04-28T11:05:14.735Z,28.78
2023-04-28T11:08:03.192Z,27.40
2023-04-28T11:11:04.652Z,26.25
2023-04-28T11:13:35.170Z,24.50
2023-04-28T11:16:07.272Z,25.01
2023-04-28T11:18:52.850Z,23.93
2023-04-28T11:21:24.237Z,24.47
2023-04-28T11:23:53.392Z,24.75
2023-04-28T11:26:23.811Z,23.91
2023-04-28T11:28:55.345Z,24.58
2023-04-28T11:31:24.789Z,25.66
2023-04-28T11:34:00.824Z,26.31
2023-04-28T11:36:35.566Z,25.11
2023-04-28T11:39:08.059Z,24.67
2023-04-28T11:41:37.529Z,24.40
2023-04-28T11:44:14.878Z,24.41
2023-04-28T11:46:50.627Z,24.88
2023-04-28T11:49:20.096Z,24.28
2023-04-28T11:51:50.274Z,23.79
2023-04-28T11:54:23.062Z,24.48
2023-04-28T11:56:52.172Z,24.83
2023-04-28T11:59:27.168Z,24.73
2023-04-28T12:01:57.371Z,24.56
2023-04-28T12:04:30.641Z,25.73
2023-04-28T12:07:03.897Z,25.77
2023-04-28T12:09:32.616Z,26.13
2023-04-28T12:12:03.409Z,25.60
2023-04-28T12:14:35.872Z,25.10
2023-04-28T12:17:04.408Z,25.68
2023-04-28T12:19:45.515Z,25.24
2023-04-28T12:22:17.623Z,25.64
2023-04-28T12:24:46.344Z,24.99
2023-04-28T12:29:52.032Z,25.18
2023-04-28T12:32:20.556Z,25.07
2023-04-28T12:34:50.895Z,23.16
2023-04-28T12:37:19.198Z,23.82
2023-04-28T12:39:47.523Z,23.49
2023-04-28T12:42:15.812Z,22.90
2023-04-28T12:44:44.100Z,24.38
2023-04-28T12:47:13.961Z,24.67
2023-04-28T12:49:42.437Z,24.71
2023-04-28T12:52:10.869Z,25.00
2023-04-28T12:54:39.188Z,24.63
2023-04-28T12:57:07.442Z,24.38
2023-04-28T12:59:35.702Z,24.73
2023-04-28T13:02:04.000Z,25.01
2023-04-28T13:04:33.926Z,24.94
2023-04-28T13:07:02.619Z,25.14
2023-04-28T13:09:30.832Z,24.54
2023-04-28T13:11:59.495Z,24.90
2023-04-28T13:14:29.252Z,25.25
2023-04-28T13:16:59.087Z,24.76
2023-04-28T13:19:27.906Z,25.18
2023-04-28T13:21:57.952Z,25.17
2023-04-28T13:24:26.537Z,24.87
2023-04-28T13:26:54.863Z,23.80
2023-04-28T13:29:23.147Z,23.64
2023-04-28T13:31:51.517Z,24.43
2023-04-28T13:34:19.859Z,24.94
2023-04-28T13:36:51.063Z,24.46
2023-04-28T13:39:22.220Z,23.79
2023-04-28T13:41:50.732Z,23.73
2023-04-28T13:44:19.373Z,24.24
2023-04-28T13:46:47.926Z,23.08
2023-04-28T13:49:17.401Z,22.52
2023-04-28T13:51:45.929Z,22.91
2023-04-28T13:54:14.246Z,22.39
2023-04-28T13:56:43.955Z,23.10
2023-04-28T13:59:12.348Z,22.94
2023-04-28T14:01:40.676Z,22.97
2023-04-28T14:04:09.354Z,23.10
2023-04-28T14:06:38.400Z,22.79
2023-04-28T14:09:06.803Z,22.16
2023-04-28T14:11:35.145Z,22.16
2023-04-28T14:14:06.051Z,21.65
2023-04-28T14:16:34.407Z,21.82
2023-04-28T14:19:02.728Z,21.81
2023-04-28T14:21:31.196Z,21.26
2023-04-28T14:23:59.447Z,21.22
2023-04-28T14:26:28.764Z,21.72
2023-04-28T14:28:57.014Z,21.99
2023-04-28T14:31:26.730Z,21.90
2023-04-28T14:33:55.076Z,22.35
2023-04-28T14:36:23.344Z,22.26
2023-04-28T14:38:51.853Z,21.92
2023-04-28T14:41:20.154Z,21.35
2023-04-28T14:43:48.387Z,21.78
2023-04-28T14:46:19.660Z,21.50
2023-04-28T14:48:49.488Z,21.72
2023-04-28T14:51:17.774Z,21.67
2023-04-28T14:53:46.152Z,21.55
2023-04-28T14:56:18.953Z,21.48
2023-04-28T14:58:47.933Z,21.31
2023-04-28T15:01:16.352Z,21.73
2023-04-28T15:03:44.950Z,21.37
2023-04-28T15:06:15.053Z,21.46
2023-04-28T15:08:43.370Z,21.84
2023-04-28T15:11:11.926Z,21.02
2023-04-28T15:13:42.918Z,21.29
2023-04-28T15:16:11.476Z,21.64
2023-04-28T15:18:39.747Z,21.06
2023-04-28T15:21:08.776Z,20.89
2023-04-28T15:23:38.451Z,21.23
2023-04-28T15:26:06.796Z,20.75
2023-04-28T15:28:35.437Z,20.39
2023-04-28T15:31:05.085Z,20.57
2023-04-28T15:33:33.775Z,20.62
2023-04-28T15:36:03.356Z,20.96
2023-04-28T15:38:32.173Z,20.53
2023-04-28T15:41:01.936Z,20.00
2023-04-28T15:43:30.233Z,19.47
2023-04-28T15:45:58.688Z,19.39
2023-04-28T15:48:27.460Z,19.27
2023-04-28T15:50:56.010Z,19.56
2023-04-28T15:53:24.848Z,19.57
2023-04-28T15:55:53.225Z,19.06
2023-04-28T15:58:23.100Z,18.46
2023-04-28T16:00:51.787Z,17.68
2023-04-28T16:03:20.388Z,18.06
2023-04-28T16:05:48.693Z,17.92
2023-04-28T16:08:17.088Z,18.17
2023-04-28T16:10:45.472Z,18.33
2023-04-28T16:13:13.750Z,18.14
2023-04-28T16:15:43.614Z,18.01
2023-04-28T16:18:11.980Z,17.83
2023-04-28T16:20:40.620Z,17.89
2023-04-28T16:23:09.568Z,17.59
2023-04-28T16:25:37.919Z,17.14
2023-04-28T16:28:07.089Z,17.32
2023-04-28T16:30:36.000Z,17.19
2023-04-28T16:33:05.728Z,17.06
2023-04-28T16:35:33.968Z,17.34
2023-04-28T16:38:02.237Z,17.48
2023-04-28T16:40:30.806Z,17.35
2023-04-28T16:42:59.132Z,17.06
2023-04-28T16:45:27.421Z,17.28
2023-04-28T16:47:55.721Z,17.12
2023-04-28T16:50:25.567Z,16.68
2023-04-28T16:52:53.794Z,17.00
2023-04-28T16:55:22.240Z,16.48
2023-04-28T16:57:50.575Z,16.61
2023-04-28T17:00:19.877Z,16.20
2023-04-28T17:02:48.251Z,16.18
2023-04-28T17:05:16.643Z,16.37
2023-04-28T17:07:46.345Z,15.66
2023-04-28T17:10:14.724Z,15.64
2023-04-28T17:12:45.475Z,15.62
2023-04-28T17:15:17.350Z,15.56
2023-04-28T17:17:46.228Z,15.50
2023-04-28T17:20:17.029Z,14.73
2023-04-28T17:22:47.021Z,15.00
2023-04-28T17:25:16.163Z,14.82
2023-04-28T17:27:44.763Z,15.00
2023-04-28T17:30:13.505Z,15.06
2023-04-28T17:32:41.837Z,14.90
2023-04-28T17:35:10.745Z,14.33
2023-04-28T17:37:39.083Z,13.93
2023-04-28T17:40:10.371Z,13.92
2023-04-28T17:42:38.668Z,13.95
2023-04-28T17:45:08.031Z,13.95
2023-04-28T17:47:36.464Z,14.00
2023-04-28T17:50:05.279Z,13.88
2023-04-28T17:52:33.621Z,13.78
2023-04-28T17:55:01.937Z,13.88
2023-04-28T17:57:32.195Z,14.74
2023-04-28T18:00:00.821Z,14.92
2023-04-28T18:02:29.150Z,14.36
2023-04-28T18:04:57.491Z,14.41
2023-04-28T18:07:27.007Z,14.09
2023-04-28T18:09:57.297Z,14.07
2023-04-28T18:12:26.318Z,14.63
2023-04-28T18:14:57.921Z,14.12
2023-04-28T18:17:26.520Z,14.20
2023-04-28T18:19:56.884Z,13.69
2023-04-28T18:22:25.448Z,13.51
2023-04-28T18:24:54.352Z,13.64
2023-04-28T18:27:22.634Z,13.60
2023-04-28T18:29:51.246Z,13.84
2023-04-28T18:32:21.217Z,13.60
2023-04-28T18:34:49.724Z,13.11
2023-04-28T18:37:18.310Z,13.09
2023-04-28T18:39:46.511Z,13.43
2023-04-28T18:42:15.139Z,13.22
2023-04-28T18:44:43.431Z,13.30
2023-04-28T18:47:12.873Z,13.41
2023-04-28T18:49:42.654Z,13.71
2023-04-28T18:52:11.008Z,14.03
2023-04-28T18:54:39.280Z,12.66
2023-04-28T18:57:07.891Z,13.69
2023-04-28T18:59:36.231Z,13.91
2023-04-28T19:02:04.826Z,13.25
2023-04-28T19:04:33.426Z,13.79
2023-04-28T19:07:03.294Z,13.93
2023-04-28T19:09:32.477Z,13.47
2023-04-28T19:12:00.731Z,13.09
2023-04-28T19:14:29.021Z,13.23
2023-04-28T19:16:57.351Z,12.89
2023-04-28T19:19:25.708Z,13.13
2023-04-28T19:21:54.120Z,13.24
2023-04-28T19:24:23.792Z,13.42
2023-04-28T19:26:52.072Z,13.46
2023-04-28T19:29:20.528Z,12.88
2023-04-28T19:31:49.978Z,12.75
2023-04-28T19:34:18.341Z,12.72
2023-04-28T19:36:46.623Z,12.97
2023-04-28T19:39:15.435Z,12.97
2023-04-28T19:41:47.051Z,12.61
2023-04-28T19:44:15.486Z,12.98
2023-04-28T19:46:45.650Z,12.56
2023-04-28T19:49:14.566Z,11.47
2023-04-28T19:51:42.892Z,11.27
2023-04-28T19:54:11.229Z,11.14
2023-04-28T19:56:39.588Z,11.41
2023-04-28T19:59:09.629Z,11.36
2023-04-28T20:01:41.904Z,11.54
2023-04-28T20:04:10.548Z,11.84
2023-04-28T20:06:39.012Z,11.89
2023-04-28T20:09:07.283Z,11.68
2023-04-28T20:11:35.488Z,11.19
2023-04-28T20:14:03.675Z,11.47
2023-04-28T20:16:33.371Z,11.62
2023-04-28T20:19:01.825Z,11.32
2023-04-28T20:21:30.137Z,10.90
2023-04-28T20:23:58.370Z,11.20
2023-04-28T20:26:26.698Z,11.71
2023-04-28T20:28:57.272Z,11.68
2023-04-28T20:31:25.712Z,11.63
2023-04-28T20:33:55.438Z,11.48
2023-04-28T20:36:23.814Z,10.91
2023-04-28T20:38:52.085Z,10.79
2023-04-28T20:41:21.738Z,10.79
2023-04-28T20:43:51.865Z,10.86
2023-04-28T20:46:20.085Z,11.25
2023-04-28T20:48:48.478Z,10.88
2023-04-28T20:51:18.155Z,10.73
2023-04-28T20:53:46.693Z,11.22
2023-04-28T20:56:15.154Z,11.10
2023-04-28T20:58:43.528Z,10.95
2023-04-28T21:01:12.127Z,11.17
2023-04-28T21:03:41.436Z,11.37
2023-04-28T21:06:10.191Z,11.39
2023-04-28T21:08:41.822Z,11.35
2023-04-28T21:11:13.945Z,11.14
2023-04-28T21:13:43.108Z,11.43
2023-04-28T21:16:18.452Z,11.02
2023-04-28T21:18:49.456Z,11.01
2023-04-28T21:21:18.415Z,11.26
2023-04-28T21:23:48.653Z,11.26
2023-04-28T21:26:16.987Z,11.66
2023-04-28T21:28:45.416Z,11.94
2023-04-28T21:31:13.705Z,12.07
2023-04-28T21:33:42.024Z,11.99
2023-04-28T21:36:10.320Z,11.75
2023-04-28T21:38:39.188Z,11.76
2023-04-28T21:41:09.008Z,11.86
2023-04-28T21:43:37.226Z,12.02
2023-04-28T21:46:05.614Z,12.13
2023-04-28T21:48:33.956Z,12.19
2023-04-28T21:51:02.723Z,12.20
2023-04-28T21:53:31.022Z,12.17
2023-04-28T21:55:59.331Z,12.18
2023-04-28T21:58:28.972Z,12.07
2023-04-28T22:00:57.429Z,12.10
2023-04-28T22:03:26.521Z,12.05
2023-04-28T22:05:54.893Z,12.12
2023-04-28T22:08:23.324Z,12.03
2023-04-28T22:10:51.707Z,11.95
2023-04-28T22:13:19.956Z,11.92
2023-04-28T22:15:49.650Z,11.78
2023-04-28T22:18:18.144Z,11.79
2023-04-28T22:20:46.981Z,11.68
2023-04-28T22:23:15.624Z,11.52
2023-04-28T22:25:45.160Z,11.85
2023-04-28T22:28:13.786Z,11.71
2023-04-28T22:30:42.025Z,11.36
2023-04-28T22:33:11.691Z,10.75
2023-04-28T22:35:40.702Z,11.02
2023-04-28T22:38:08.866Z,11.35
2023-04-28T22:40:37.147Z,11.45
2023-04-28T22:43:05.621Z,11.53
2023-04-28T22:45:33.849Z,11.51
2023-04-28T22:48:02.322Z,11.49
2023-04-28T22:50:32.248Z,11.47
2023-04-28T22:53:00.630Z,11.40
2023-04-28T22:55:28.972Z,11.29
2023-04-28T22:57:57.193Z,11.36
2023-04-28T23:00:25.883Z,11.22
2023-04-28T23:02:54.307Z,11.14
2023-04-28T23:05:22.649Z,10.82
2023-04-28T23:07:52.285Z,10.88
2023-04-28T23:10:20.940Z,11.04
2023-04-28T23:12:49.720Z,11.01
2023-04-28T23:15:18.034Z,10.97
2023-04-28T23:17:46.524Z,10.92
2023-04-28T23:20:15.187Z,10.85
2023-04-28T23:22:43.450Z,10.94
2023-04-28T23:25:13.486Z,10.20
2023-04-28T23:27:41.755Z,10.74
2023-04-28T23:30:11.237Z,10.86
2023-04-28T23:32:39.873Z,10.87
2023-04-28T23:35:08.669Z,10.90
2023-04-28T23:37:36.943Z,10.84
2023-04-28T23:40:05.775Z,10.79
2023-04-28T23:42:35.476Z,10.10
2023-04-28T23:45:03.811Z,9.77
2023-04-28T23:47:32.110Z,9.37
2023-04-28T23:50:00.330Z,9.10
2023-04-28T23:52:28.668Z,9.33
2023-04-28T23:54:56.913Z,9.85
2023-04-28T23:57:25.595Z,10.10
2023-04-28T23:59:55.302Z,10.32
